createdAt,value
2018-09-08T00:01:35.723Z,99044.72
2018-09-08T00:04:03.880Z,99049.92
2018-09-08T00:06:32.943Z,99047.67
2018-09-08T00:09:01.528Z,99052.93
2018-09-08T00:11:29.655Z,99050.01
2018-09-08T00:13:57.775Z,99055.87
2018-09-08T00:16:31.182Z,99059.45
2018-09-08T00:19:04.506Z,99060.16
2018-09-08T00:21:37.919Z,99055.03
2018-09-08T00:24:11.528Z,99061.78
2018-09-08T00:26:39.415Z,99056.01
2018-09-08T00:29:12.916Z,99062.33
2018-09-08T00:31:41.007Z,99060.80
2018-09-08T00:34:09.116Z,99062.33
2018-09-08T00:36:42.204Z,99064.14
2018-09-08T00:39:11.391Z,99067.08
2018-09-08T00:41:39.511Z,99066.81
2018-09-08T00:44:07.616Z,99066.38
2018-09-08T00:46:35.766Z,99077.25
2018-09-08T00:49:04.688Z,99076.67
2018-09-08T00:51:33.328Z,99075.34
2018-09-08T00:54:01.631Z,99081.22
2018-09-08T00:56:30.203Z,99080.45
2018-09-08T00:59:05.395Z,99079.61
2018-09-08T01:01:40.011Z,99085.89
2018-09-08T01:04:08.130Z,99091.80
2018-09-08T01:06:36.404Z,99090.41
2018-09-08T01:09:06.633Z,99087.39
2018-09-08T01:11:34.722Z,99091.31
2018-09-08T01:14:02.992Z,99092.48
2018-09-08T01:16:31.119Z,99091.49
2018-09-08T01:18:59.215Z,99087.97
2018-09-08T01:21:27.343Z,99093.19
2018-09-08T01:23:55.445Z,99095.75
2018-09-08T01:26:24.427Z,99099.36
2018-09-08T01:28:52.590Z,99097.67
2018-09-08T01:31:21.228Z,99106.57
2018-09-08T01:33:49.339Z,99108.20
2018-09-08T01:36:18.020Z,99112.59
2018-09-08T01:38:46.121Z,99107.16
2018-09-08T01:41:14.228Z,99106.09
2018-09-08T01:43:42.923Z,99106.52
2018-09-08T01:46:10.997Z,99110.83
2018-09-08T01:48:39.125Z,99117.05
2018-09-08T01:51:07.440Z,99117.35
2018-09-08T01:53:35.551Z,99111.30
2018-09-08T01:56:03.931Z,99118.83
2018-09-08T01:58:32.833Z,99122.36
2018-09-08T02:01:02.284Z,99122.77
2018-09-08T02:03:30.397Z,99126.39
2018-09-08T02:05:58.500Z,99130.01
2018-09-08T02:08:26.800Z,99125.40
2018-09-08T02:10:55.496Z,99126.72
2018-09-08T02:13:24.596Z,99123.57
2018-09-08T02:15:52.829Z,99123.95
2018-09-08T02:18:21.067Z,99132.60
2018-09-08T02:20:49.261Z,99128.34
2018-09-08T02:23:17.646Z,99131.02
2018-09-08T02:25:47.754Z,99132.00
2018-09-08T02:28:15.851Z,99134.44
2018-09-08T02:30:43.935Z,99134.58
2018-09-08T02:33:12.552Z,99131.80
2018-09-08T02:35:40.748Z,99131.18
2018-09-08T02:38:10.403Z,99128.70
2018-09-08T02:40:38.632Z,99131.27
2018-09-08T02:43:06.718Z,99121.34
2018-09-08T02:45:34.801Z,99122.89
2018-09-08T02:48:03.475Z,99128.43
2018-09-08T02:50:34.102Z,99130.83
2018-09-08T02:53:01.707Z,99125.55
2018-09-08T02:55:29.217Z,99128.71
2018-09-08T02:57:56.854Z,99128.34
2018-09-08T03:00:24.135Z,99129.88
2018-09-08T03:02:51.484Z,99130.95
2018-09-08T03:05:19.157Z,99130.46
2018-09-08T03:07:47.760Z,99132.87
2018-09-08T03:10:15.681Z,99135.44
2018-09-08T03:12:42.803Z,99138.58
2018-09-08T03:15:09.883Z,99139.67
2018-09-08T03:17:37.004Z,99138.84
2018-09-08T03:20:04.187Z,99134.28
2018-09-08T03:22:31.651Z,99139.33
2018-09-08T03:24:58.874Z,99150.47
2018-09-08T03:27:25.959Z,99156.81
2018-09-08T03:29:53.105Z,99159.58
2018-09-08T03:32:20.202Z,99158.02
2018-09-08T03:34:48.132Z,99149.17
2018-09-08T03:37:15.650Z,99150.24
2018-09-08T03:39:42.727Z,99155.17
2018-09-08T03:42:10.030Z,99153.13
2018-09-08T03:44:37.132Z,99151.09
2018-09-08T03:47:04.234Z,99157.09
2018-09-08T03:49:31.328Z,99155.40
2018-09-08T03:51:58.425Z,99159.59
2018-09-08T03:54:25.526Z,99157.91
2018-09-08T03:56:52.795Z,99155.05
2018-09-08T03:59:19.876Z,99156.24
2018-09-08T04:01:47.576Z,99153.13
2018-09-08T04:04:15.679Z,99145.70
2018-09-08T04:06:44.408Z,99152.16
2018-09-08T04:09:12.639Z,99149.05
2018-09-08T04:11:40.820Z,99145.34
2018-09-08T04:14:09.422Z,99152.16
2018-09-08T04:16:37.561Z,99153.35
2018-09-08T04:19:06.366Z,99162.81
2018-09-08T04:21:34.526Z,99159.92
2018-09-08T04:24:02.702Z,99157.75
2018-09-08T04:26:30.833Z,99159.44
2018-09-08T04:28:59.327Z,99171.03
2018-09-08T04:31:27.484Z,99166.88
2018-09-08T04:33:56.296Z,99169.27
2018-09-08T04:36:24.441Z,99162.92
2018-09-08T04:38:52.587Z,99168.39
2018-09-08T04:41:22.339Z,99166.44
2018-09-08T04:43:50.440Z,99173.63
2018-09-08T04:46:18.541Z,99175.55
2018-09-08T04:48:47.126Z,99177.58
2018-09-08T04:51:15.199Z,99180.91
2018-09-08T04:53:44.043Z,99188.81
2018-09-08T04:56:12.116Z,99185.84
2018-09-08T04:58:40.221Z,99183.31
2018-09-08T05:01:08.336Z,99191.45
2018-09-08T05:03:36.435Z,99197.19
2018-09-08T05:06:04.611Z,99192.19
2018-09-08T05:08:32.718Z,99200.55
2018-09-08T05:11:00.835Z,99198.04
2018-09-08T05:13:28.931Z,99204.02
2018-09-08T05:15:57.033Z,99204.66
2018-09-08T05:18:25.123Z,99204.45
2018-09-08T05:20:53.196Z,99204.33
2018-09-08T05:23:21.338Z,99200.48
2018-09-08T05:25:49.424Z,99202.62
2018-09-08T05:28:18.327Z,99202.73
2018-09-08T05:30:46.698Z,99214.72
2018-09-08T05:33:15.091Z,99210.39
2018-09-08T05:35:43.208Z,99218.06
2018-09-08T05:38:11.645Z,99214.34
2018-09-08T05:40:39.801Z,99217.36
2018-09-08T05:43:07.908Z,99215.47
2018-09-08T05:45:36.027Z,99215.81
2018-09-08T05:48:04.223Z,99215.35
2018-09-08T05:50:32.295Z,99218.96
2018-09-08T05:53:00.384Z,99214.64
2018-09-08T05:55:28.440Z,99212.02
2018-09-08T05:57:56.523Z,99224.72
2018-09-08T06:00:24.616Z,99218.75
2018-09-08T06:02:52.712Z,99218.13
2018-09-08T06:05:20.804Z,99232.73
2018-09-08T06:07:48.991Z,99220.56
2018-09-08T06:10:17.109Z,99223.34
2018-09-08T06:12:45.487Z,99222.44
2018-09-08T06:15:13.574Z,99231.11
2018-09-08T06:20:45.333Z,99232.56
2018-09-08T06:23:14.180Z,99236.13
2018-09-08T06:25:43.070Z,99231.75
2018-09-08T06:28:11.519Z,99235.77
2018-09-08T06:30:39.996Z,99240.54
2018-09-08T06:33:08.399Z,99238.19
2018-09-08T06:35:37.129Z,99242.05
2018-09-08T06:38:05.821Z,99245.39
2018-09-08T06:40:34.808Z,99237.40
2018-09-08T06:43:03.194Z,99250.27
2018-09-08T06:45:31.724Z,99238.49
2018-09-08T06:48:00.113Z,99242.45
2018-09-08T08:21:57.932Z,99263.86
2018-09-08T08:54:55.715Z,99261.94
2018-09-08T08:57:30.818Z,99270.23
2018-09-08T08:59:59.681Z,99262.93
2018-09-08T09:02:28.521Z,99263.89
2018-09-08T09:04:56.803Z,99255.15
2018-09-08T09:07:24.987Z,99254.63
2018-09-08T09:09:53.467Z,99252.19
2018-09-08T09:18:39.267Z,99247.27
2018-09-08T09:21:18.594Z,99249.12
2018-09-08T09:25:04.471Z,99251.81
2018-09-08T09:27:34.471Z,99239.27
2018-09-08T09:30:03.412Z,99244.30
2018-09-08T09:32:32.650Z,99235.69
2018-09-08T09:37:52.707Z,99238.39
2018-09-08T09:40:23.080Z,99228.87
2018-09-08T09:43:09.672Z,99225.56
2018-09-08T09:45:38.414Z,99221.56
2018-09-08T09:48:07.024Z,99220.60
2018-09-08T09:50:35.342Z,99220.75
2018-09-08T09:53:03.537Z,99217.57
2018-09-08T09:55:31.762Z,99213.00
2018-09-08T09:58:00.095Z,99214.94
2018-09-08T10:00:33.636Z,99217.98
2018-09-08T10:03:07.049Z,99217.67
2018-09-08T10:05:36.738Z,99217.32
2018-09-08T10:08:04.955Z,99213.34
2018-09-08T10:10:33.270Z,99211.50
2018-09-08T10:13:01.401Z,99214.35
2018-09-08T10:15:31.066Z,99216.18
2018-09-08T10:17:59.219Z,99219.98
2018-09-08T10:20:27.365Z,99216.33
2018-09-08T10:22:55.488Z,99211.52
2018-09-08T10:25:23.571Z,99208.64
2018-09-08T10:27:51.683Z,99207.66
2018-09-08T10:30:19.817Z,99208.80
2018-09-08T10:32:48.163Z,99201.95
2018-09-08T10:35:16.282Z,99195.78
2018-09-08T10:37:44.373Z,99195.69
2018-09-08T10:40:13.240Z,99191.02
2018-09-08T10:42:41.566Z,99193.34
2018-09-08T10:45:09.946Z,99186.14
2018-09-08T10:47:38.238Z,99179.66
2018-09-08T10:50:06.635Z,99183.69
2018-09-08T10:52:37.979Z,99180.14
2018-09-08T10:55:06.081Z,99177.16
2018-09-08T10:57:34.176Z,99180.61
2018-09-08T11:00:03.075Z,99177.48
2018-09-08T11:02:31.659Z,99178.35
2018-09-08T11:04:59.907Z,99179.11
2018-09-08T11:07:28.012Z,99173.73
2018-09-08T11:09:56.138Z,99176.13
2018-09-08T11:12:24.237Z,99179.94
2018-09-08T11:14:52.349Z,99171.99
2018-09-08T11:17:20.455Z,99172.01
2018-09-08T11:19:48.604Z,99168.84
2018-09-08T11:22:16.748Z,99174.25
2018-09-08T11:24:44.847Z,99174.07
2018-09-08T11:27:13.414Z,99176.18
2018-09-08T11:29:41.619Z,99164.97
2018-09-08T11:32:09.743Z,99172.09
2018-09-08T11:34:38.187Z,99168.09
2018-09-08T11:37:06.299Z,99164.02
2018-09-08T11:39:34.402Z,99162.31
2018-09-08T11:42:03.230Z,99155.66
2018-09-08T11:44:31.344Z,99161.63
2018-09-08T11:46:59.962Z,99152.14
2018-09-08T11:49:28.061Z,99146.22
2018-09-08T11:51:56.190Z,99139.63
2018-09-08T11:54:24.284Z,99143.02
2018-09-08T11:56:52.371Z,99144.22
2018-09-08T11:59:20.488Z,99145.00
2018-09-08T12:01:48.973Z,99138.31
2018-09-08T12:04:17.078Z,99126.61
2018-09-08T12:06:45.191Z,99130.41
2018-09-08T12:09:13.327Z,99126.97
2018-09-08T12:11:41.543Z,99125.19
2018-09-08T12:14:10.063Z,99119.37
2018-09-08T12:16:38.251Z,99124.08
2018-09-08T12:19:06.461Z,99117.12
2018-09-08T12:21:34.938Z,99113.83
2018-09-08T12:24:03.067Z,99108.56
2018-09-08T12:26:31.175Z,99109.38
2018-09-08T12:28:59.290Z,99110.00
2018-09-08T12:31:27.375Z,99115.78
2018-09-08T12:33:55.818Z,99102.14
2018-09-08T12:36:23.924Z,99098.64
2018-09-08T12:38:52.113Z,99107.20
2018-09-08T12:41:20.407Z,99102.13
2018-09-08T12:43:48.812Z,99093.17
2018-09-08T12:46:16.972Z,99095.10
2018-09-08T12:48:45.161Z,99097.42
2018-09-08T12:51:13.274Z,99097.73
2018-09-08T12:53:41.357Z,99096.47
2018-09-08T12:56:09.539Z,99091.42
2018-09-08T12:58:37.667Z,99096.59
2018-09-08T13:01:06.343Z,99094.87
2018-09-08T13:03:34.509Z,99088.83
2018-09-08T13:06:03.082Z,99093.12
2018-09-08T13:08:31.171Z,99085.31
2018-09-08T13:10:59.269Z,99089.08
2018-09-08T13:13:27.366Z,99092.81
2018-09-08T13:16:02.303Z,99090.09
2018-09-08T13:18:30.403Z,99093.01
2018-09-08T13:20:58.708Z,99087.78
2018-09-08T13:23:26.818Z,99086.38
2018-09-08T13:25:54.968Z,99083.87
2018-09-08T13:28:23.015Z,99072.28
2018-09-08T13:30:51.099Z,99077.16
2018-09-08T13:33:19.784Z,99077.55
2018-09-08T13:35:47.878Z,99075.66
2018-09-08T13:38:16.040Z,99065.59
2018-09-08T13:40:44.166Z,99064.30
2018-09-08T13:43:12.273Z,99068.53
2018-09-08T13:45:40.384Z,99066.43
2018-09-08T13:48:08.488Z,99068.94
2018-09-08T13:50:36.605Z,99065.52
2018-09-08T13:53:04.739Z,99062.36
2018-09-08T13:55:32.896Z,99056.97
2018-09-08T13:58:01.008Z,99058.05
2018-09-08T14:00:29.130Z,99059.84
2018-09-08T14:02:57.243Z,99055.50
2018-09-08T14:05:25.377Z,99052.50
2018-09-08T14:07:55.560Z,99048.52
2018-09-08T14:10:23.725Z,99048.50
2018-09-08T14:12:51.829Z,99047.55
2018-09-08T14:15:19.936Z,99047.16
2018-09-08T14:17:48.039Z,99043.44
2018-09-08T14:20:16.142Z,99049.31
2018-09-08T14:22:44.344Z,99053.45
2018-09-08T14:25:12.512Z,99046.63
2018-09-08T14:27:40.602Z,99043.14
2018-09-08T14:30:09.648Z,99045.19
2018-09-08T14:32:37.751Z,99045.69
2018-09-08T14:35:05.889Z,99040.83
2018-09-08T14:37:34.085Z,99037.28
2018-09-08T14:40:02.222Z,99036.44
2018-09-08T14:42:30.317Z,99032.70
2018-09-08T14:44:58.440Z,99025.40
2018-09-08T14:47:26.603Z,99034.92
2018-09-08T14:49:54.951Z,99032.91
2018-09-08T14:52:23.068Z,99033.17
2018-09-08T14:54:51.587Z,99032.76
2018-09-08T14:57:19.719Z,99029.34
2018-09-08T14:59:47.851Z,99031.54
2018-09-08T15:02:15.970Z,99034.66
2018-09-08T15:04:44.133Z,99031.23
2018-09-08T15:07:12.184Z,99035.87
2018-09-08T15:09:40.365Z,99022.42
2018-09-08T15:12:08.735Z,99026.27
2018-09-08T15:14:36.864Z,99029.20
2018-09-08T15:17:05.563Z,99028.59
2018-09-08T15:19:33.676Z,99029.41
2018-09-08T15:22:01.881Z,99038.52
2018-09-08T15:24:30.026Z,99030.46
2018-09-08T15:26:58.111Z,99023.90
2018-09-08T15:29:26.239Z,99030.17
2018-09-08T15:31:54.364Z,99030.70
2018-09-08T15:34:22.464Z,99027.44
2018-09-08T15:36:50.559Z,99026.11
2018-09-08T15:39:18.676Z,99031.34
2018-09-08T15:41:46.763Z,99025.27
2018-09-08T15:44:15.197Z,99030.59
2018-09-08T15:46:43.299Z,99029.81
2018-09-08T15:49:12.038Z,99035.98
2018-09-08T15:51:40.182Z,99041.13
2018-09-08T15:54:08.258Z,99035.34
2018-09-08T15:56:36.386Z,99032.73
2018-09-08T15:59:04.511Z,99031.25
2018-09-08T16:01:32.607Z,99045.98
2018-09-08T16:04:00.721Z,99034.59
2018-09-08T16:06:28.851Z,99037.71
2018-09-08T16:08:56.924Z,99040.45
2018-09-08T16:11:25.049Z,99039.25
2018-09-08T16:13:53.345Z,99040.02
2018-09-08T16:16:21.473Z,99043.61
2018-09-08T16:18:49.599Z,99040.09
2018-09-08T16:21:17.622Z,99038.27
2018-09-08T16:23:46.022Z,99032.17
2018-09-08T16:26:14.542Z,99032.52
2018-09-08T16:28:43.701Z,99037.49
2018-09-08T16:31:11.831Z,99035.66
2018-09-08T16:33:40.094Z,99032.22
2018-09-08T16:36:08.200Z,99032.22
2018-09-08T16:38:36.705Z,99037.30
2018-09-08T16:41:04.817Z,99039.78
2018-09-08T16:43:33.219Z,99035.40
2018-09-08T16:46:01.406Z,99034.84
2018-09-08T16:48:29.782Z,99041.34
2018-09-08T16:50:58.087Z,99039.10
2018-09-08T16:53:26.236Z,99039.36
2018-09-08T16:55:54.357Z,99039.08
2018-09-08T16:58:22.468Z,99041.99
2018-09-08T17:00:51.367Z,99039.63
2018-09-08T17:03:19.539Z,99038.91
2018-09-08T17:05:48.392Z,99030.66
2018-09-08T17:08:17.849Z,99033.20
2018-09-08T17:10:47.593Z,99031.34
2018-09-08T17:13:15.711Z,99032.73
2018-09-08T17:15:44.451Z,99035.91
2018-09-08T17:18:12.888Z,99031.63
2018-09-08T17:20:41.452Z,99035.91
2018-09-08T17:23:09.559Z,99037.55
2018-09-08T17:25:38.405Z,99038.75
2018-09-08T17:28:06.617Z,99045.20
2018-09-08T17:30:34.719Z,99042.45
2018-09-08T17:33:02.851Z,99046.67
2018-09-08T17:35:31.232Z,99046.02
2018-09-08T17:37:59.408Z,99049.16
2018-09-08T17:40:27.523Z,99058.91
2018-09-08T17:42:55.642Z,99054.95
2018-09-08T17:45:23.747Z,99061.70
2018-09-08T17:47:51.866Z,99062.94
2018-09-08T17:50:19.990Z,99063.77
2018-09-08T17:52:48.114Z,99061.48
2018-09-08T17:55:16.202Z,99066.88
2018-09-08T17:57:44.436Z,99067.26
2018-09-08T18:00:13.288Z,99067.33
2018-09-08T18:02:41.897Z,99063.52
2018-09-08T18:05:10.354Z,99064.05
2018-09-08T18:07:40.012Z,99060.23
2018-09-08T18:10:08.585Z,99059.58
2018-09-08T18:12:36.696Z,99063.26
2018-09-08T18:15:05.419Z,99058.59
2018-09-08T18:17:33.519Z,99066.27
2018-09-08T18:20:01.679Z,99066.75
2018-09-08T18:22:29.783Z,99076.08
2018-09-08T18:24:57.955Z,99076.38
2018-09-08T18:27:26.386Z,99077.39
2018-09-08T18:29:54.515Z,99080.38
2018-09-08T18:32:22.671Z,99085.00
2018-09-08T18:34:50.758Z,99086.61
2018-09-08T18:37:20.123Z,99094.12
2018-09-08T18:39:48.244Z,99088.95
2018-09-08T18:42:16.328Z,99095.59
2018-09-08T18:44:44.566Z,99095.22
2018-09-08T18:47:12.691Z,99094.75
2018-09-08T18:49:40.809Z,99094.52
2018-09-08T18:52:08.915Z,99096.80
2018-09-08T18:54:37.021Z,99101.02
2018-09-08T18:57:05.517Z,99105.91
2018-09-08T18:59:33.610Z,99103.19
2018-09-08T19:02:01.738Z,99109.77
2018-09-08T19:04:29.827Z,99109.83
2018-09-08T19:06:57.940Z,99105.33
2018-09-08T19:09:26.055Z,99104.61
2018-09-08T19:11:54.156Z,99108.16
2018-09-08T19:14:27.831Z,99112.10
2018-09-08T19:16:55.916Z,99116.77
2018-09-08T19:19:24.011Z,99116.20
2018-09-08T19:21:52.139Z,99120.12
2018-09-08T19:24:54.983Z,99117.42
2018-09-08T19:27:23.089Z,99122.22
2018-09-08T19:29:52.135Z,99122.33
2018-09-08T19:32:20.819Z,99123.87
2018-09-08T19:34:54.350Z,99117.69
2018-09-08T19:37:22.571Z,99120.19
2018-09-08T19:39:50.639Z,99114.36
2018-09-08T19:42:18.739Z,99116.37
2018-09-08T19:44:46.812Z,99116.64
2018-09-08T19:47:20.291Z,99116.75
2018-09-08T19:49:48.384Z,99117.98
2018-09-08T19:52:21.719Z,99117.86
2018-09-08T19:54:49.817Z,99117.70
2018-09-08T19:57:23.116Z,99122.52
2018-09-08T19:59:51.167Z,99120.49
2018-09-08T20:02:19.253Z,99119.45
2018-09-08T20:04:47.610Z,99121.75
2018-09-08T20:07:15.674Z,99120.79
2018-09-08T20:09:44.307Z,99128.45
2018-09-08T20:12:12.319Z,99131.83
2018-09-08T20:14:40.541Z,99131.28
2018-09-08T20:17:08.684Z,99129.16
2018-09-08T20:19:37.507Z,99130.39
2018-09-08T20:22:06.733Z,99130.66
2018-09-08T20:24:35.362Z,99136.18
2018-09-08T20:27:12.684Z,99128.87
2018-09-08T20:29:42.099Z,99128.71
2018-09-08T20:32:10.691Z,99121.16
2018-09-08T20:34:42.554Z,99115.88
2018-09-08T20:37:11.823Z,99112.93
2018-09-08T20:39:40.521Z,99119.31
2018-09-08T20:42:08.648Z,99112.88
2018-09-08T20:44:37.404Z,99109.55
2018-09-08T20:47:06.387Z,99113.11
2018-09-08T20:49:34.963Z,99118.59
2018-09-08T20:52:03.839Z,99112.52
2018-09-08T20:54:31.959Z,99112.90
2018-09-08T20:57:02.066Z,99112.35
2018-09-08T20:59:30.188Z,99111.98
2018-09-08T21:02:00.342Z,99108.00
2018-09-08T21:04:30.619Z,99114.98
2018-09-08T21:06:58.748Z,99105.81
2018-09-08T21:09:26.888Z,99107.69
2018-09-08T21:11:55.015Z,99112.36
2018-09-08T21:14:29.068Z,99107.53
2018-09-08T21:16:57.194Z,99113.47
2018-09-08T21:19:26.902Z,99113.69
2018-09-08T21:21:55.054Z,99121.81
2018-09-08T21:24:23.598Z,99125.19
2018-09-08T21:26:51.785Z,99130.92
2018-09-08T21:29:19.986Z,99128.02
2018-09-08T21:31:49.463Z,99129.95
2018-09-08T21:34:17.608Z,99133.66
2018-09-08T21:36:45.709Z,99134.98
2018-09-08T21:39:13.815Z,99143.00
2018-09-08T21:41:41.984Z,99149.80
2018-09-08T21:44:10.367Z,99143.62
2018-09-08T21:46:38.455Z,99146.63
2018-09-08T21:49:06.630Z,99142.05
2018-09-08T21:51:34.723Z,99147.95
2018-09-08T21:54:02.914Z,99153.09
2018-09-08T21:56:31.427Z,99152.30
2018-09-08T21:58:59.548Z,99158.29
2018-09-08T22:02:40.480Z,99153.66
2018-09-08T22:07:48.276Z,99151.44
2018-09-08T22:10:17.714Z,99153.89
2018-09-08T22:12:46.243Z,99154.42
2018-09-08T22:15:14.873Z,99156.30
2018-09-08T22:17:43.432Z,99152.05
2018-09-08T22:20:12.203Z,99148.05
2018-09-08T22:22:40.981Z,99144.56
2018-09-08T22:25:09.555Z,99147.62
2018-09-08T22:27:37.973Z,99145.59
2018-09-08T22:32:45.903Z,99154.91
2018-09-08T22:35:14.417Z,99152.41
2018-09-08T22:37:42.996Z,99158.06
2018-09-08T22:40:11.635Z,99157.31
2018-09-08T22:42:40.315Z,99154.30
2018-09-08T22:45:08.957Z,99152.44
2018-09-08T22:47:37.534Z,99143.58
2018-09-08T22:50:06.376Z,99158.09
2018-09-08T22:52:35.040Z,99152.78
2018-09-08T22:55:03.953Z,99159.62
2018-09-08T23:00:11.433Z,99155.35
2018-09-08T23:02:40.300Z,99157.41
2018-09-08T23:05:08.894Z,99168.58
2018-09-08T23:07:37.565Z,99175.92
2018-09-08T23:10:06.312Z,99173.47
2018-09-08T23:12:35.036Z,99167.48
2018-09-08T23:15:03.822Z,99169.83
2018-09-08T23:17:32.458Z,99168.31
2018-09-08T23:20:00.998Z,99169.84
2018-09-08T23:22:29.732Z,99164.70
2018-09-08T23:24:58.511Z,99163.98
2018-09-08T23:27:27.076Z,99163.42
2018-09-08T23:29:55.959Z,99160.31
2018-09-08T23:32:25.207Z,99167.88
2018-09-08T23:34:53.826Z,99162.37
2018-09-08T23:37:22.451Z,99167.80
2018-09-08T23:39:58.047Z,99177.20
2018-09-08T23:42:26.985Z,99174.67
2018-09-08T23:44:55.470Z,99174.97
2018-09-08T23:50:13.428Z,99179.08
2018-09-08T23:52:42.131Z,99175.41
2018-09-08T23:55:11.002Z,99172.92
2018-09-08T23:57:39.648Z,99179.66
